KWST/WST METAR and TAF weather

Enter ICAO airport designator
Station Type Date Time Source
KWST METAR 2022/01/19 19:53 UTC NOAA

KWST 191953Z AUTO 22009G22KT 10SM CLR 08/01 A2997 RMK AO2 SLP149 T00830011


Station Type Date Time Source
KWST Decoded METAR 2022/01/19 19:53 UTC NOAA

WESTERLY STATE AIRPORT, RI, United States (KWST) 41-21N 071-48W 21M
Jan 19, 2022 - 02:53 PM EST / 2022.01.19 1953 UTC
Wind: from the SW (220 degrees) at 10 MPH (9 KT) gusting to 25 MPH (22 KT):0
Visibility: 10 mile(s):0
Sky conditions: clear
Temperature: 46.9 F (8.3 C)
Dew Point: 34.0 F (1.1 C)
Relative Humidity: 60%
Pressure (altimeter): 29.97 in. Hg (1014 hPa)
ob: KWST 191953Z AUTO 22009G22KT 10SM CLR 08/01 A2997 RMK AO2 SLP149 T00830011
cycle: 20

Station Type Date Time Source
KWST TAF UTC NOAA

Error!

Example: see airport list